Time;durP1;ratioP1;P1;durP2;ratioP2;P2;SDS_P1;SDS_P2;PMS_P1;PMS_P2;Temp;Humidity;BMP_temperature;BMP_pressure;BME280_temperature;BME280_humidity;BME280_pressure;Samples;Min_cycle;Max_cycle;Signal;HPM_P1;HPM_P2
2023/04/06 00:00:15;;;;;;;9.10;6.77;;;;;;;5.74;80.50;96571.25;5072253;28;20592;-83
2023/04/06 00:02:42;;;;;;;8.67;6.80;;;;;;;5.71;82.00;96585.03;5090217;28;20728;-86
2023/04/06 00:05:10;;;;;;;8.03;6.60;;;;;;;5.66;81.49;96575.81;5090628;28;20230;-88
2023/04/06 00:07:37;;;;;;;9.23;6.50;;;;;;;6.01;81.09;96582.31;5071992;28;20232;-89
2023/04/06 00:10:04;;;;;;;7.67;6.17;;;;;;;6.13;80.83;96575.00;5089595;28;20186;-91
2023/04/06 00:12:32;;;;;;;8.57;6.50;;;;;;;5.62;81.11;96533.13;5088514;28;20194;-88
2023/04/06 00:14:59;;;;;;;8.10;6.63;;;;;;;5.83;81.62;96567.53;5088571;28;20196;-86
2023/04/06 00:17:26;;;;;;;8.73;6.93;;;;;;;5.88;80.77;96566.50;5088286;28;20189;-86
2023/04/06 00:19:53;;;;;;;7.93;6.33;;;;;;;5.70;81.94;96565.38;5088263;28;20203;-85
2023/04/06 00:22:20;;;;;;;10.10;6.80;;;;;;;5.51;81.97;96556.63;5088399;28;20245;-85
2023/04/06 00:24:47;;;;;;;8.87;6.43;;;;;;;5.83;82.41;96552.09;5088258;28;20181;-82
2023/04/06 00:27:14;;;;;;;10.10;7.13;;;;;;;5.94;81.35;96556.00;5088484;28;20197;-86
2023/04/06 00:29:41;;;;;;;10.83;7.07;;;;;;;6.02;81.45;96553.19;5088610;28;20201;-87
2023/04/06 00:32:08;;;;;;;8.23;6.60;;;;;;;6.01;80.71;96544.63;5088160;28;20555;-87
2023/04/06 00:34:35;;;;;;;9.43;6.77;;;;;;;6.13;79.83;96544.16;5088266;28;20685;-84
2023/04/06 00:37:02;;;;;;;8.47;6.87;;;;;;;6.20;79.76;96543.03;5087992;28;20675;-88
2023/04/06 00:39:30;;;;;;;8.93;6.50;;;;;;;6.05;80.12;96535.91;5089387;28;20688;-72
2023/04/06 00:41:57;;;;;;;8.50;6.77;;;;;;;6.20;79.99;96543.03;5087590;28;20704;-89
2023/04/06 00:44:24;;;;;;;9.07;6.43;;;;;;;6.25;80.22;96541.16;5089084;28;20194;-89
2023/04/06 00:46:51;;;;;;;8.33;6.33;;;;;;;6.23;79.45;96532.66;5090816;28;20700;-89
2023/04/06 00:49:18;;;;;;;8.43;6.10;;;;;;;6.32;78.62;96532.31;5091066;28;20227;-82
2023/04/06 00:51:45;;;;;;;9.27;6.70;;;;;;;6.13;80.10;96530.47;5068263;28;20198;-87
2023/04/06 00:54:14;;;;;;;8.57;6.50;;;;;;;6.13;79.96;96533.03;5057086;28;20208;-89
2023/04/06 00:56:43;;;;;;;9.30;6.87;;;;;;;6.04;80.87;96526.50;5072710;28;20526;-87
2023/04/06 00:59:11;;;;;;;8.70;7.10;;;;;;;6.14;80.92;96527.03;5071915;28;20182;-81
2023/04/06 01:01:39;;;;;;;9.50;7.03;;;;;;;6.06;79.53;96521.31;5087487;28;20250;-88
2023/04/06 01:04:24;;;;;;;9.80;7.07;;;;;;;6.09;79.21;96508.34;5086501;28;20190;-75
2023/04/06 01:06:53;;;;;;;8.10;6.63;;;;;;;6.10;80.52;96528.03;5084082;28;20269;-86
2023/04/06 01:09:24;;;;;;;10.40;7.73;;;;;;;6.01;79.39;96494.94;5070587;28;20258;-88
2023/04/06 01:11:52;;;;;;;10.10;7.03;;;;;;;5.98;79.39;96519.00;5072066;28;20668;-85
2023/04/06 01:14:25;;;;;;;9.43;6.77;;;;;;;6.11;79.46;96535.69;5084675;28;20199;-88
2023/04/06 01:17:00;;;;;;;11.20;7.93;;;;;;;5.96;80.12;96512.25;5092030;28;20193;-85
2023/04/06 01:19:30;;;;;;;10.83;7.57;;;;;;;5.89;79.70;96523.66;5082819;28;20182;-89
2023/04/06 01:21:57;;;;;;;8.63;6.87;;;;;;;6.00;78.72;96518.94;5085094;28;20241;-85
2023/04/06 01:24:31;;;;;;;10.17;7.57;;;;;;;5.88;80.07;96514.25;5102610;28;20227;-80
2023/04/06 01:27:18;;;;;;;10.23;7.60;;;;;;;5.98;78.93;96507.88;5080878;28;20608;-80
2023/04/06 01:30:04;;;;;;;9.07;6.57;;;;;;;5.96;78.48;96501.97;5084930;28;20677;-86
2023/04/06 01:32:52;;;;;;;9.00;7.27;;;;;;;5.93;79.40;96500.38;5082412;28;20220;-85
2023/04/06 01:35:42;;;;;;;9.13;7.10;;;;;;;6.00;79.06;96504.38;5096852;28;20209;-82
2023/04/06 01:38:20;;;;;;;11.77;7.80;;;;;;;6.06;78.77;96504.16;5079339;28;20264;-81
2023/04/06 01:40:48;;;;;;;10.73;7.37;;;;;;;5.78;78.30;96467.47;5059167;28;20241;-78
2023/04/06 01:43:18;;;;;;;9.83;6.87;;;;;;;5.85;79.85;96494.69;5072354;28;20185;-80
2023/04/06 01:46:05;;;;;;;10.23;7.20;;;;;;;5.88;78.89;96494.53;5052472;28;20195;-84
2023/04/06 01:48:36;;;;;;;12.23;6.80;;;;;;;5.87;79.95;96498.03;5057462;28;20226;-76
2023/04/06 01:51:13;;;;;;;11.03;7.50;;;;;;;5.84;79.81;96497.28;5052639;28;20193;-73
2023/04/06 01:53:49;;;;;;;9.60;6.90;;;;;;;5.81;79.00;96503.34;5051100;28;20218;-81
2023/04/06 01:56:20;;;;;;;13.40;6.80;;;;;;;5.84;79.42;96498.13;5049641;28;20225;-87
2023/04/06 01:58:57;;;;;;;9.23;6.83;;;;;;;5.85;79.05;96499.81;5052264;28;20190;-82
2023/04/06 02:01:28;;;;;;;9.83;6.87;;;;;;;5.85;79.55;96494.69;5048823;28;20197;-82
2023/04/06 02:03:56;;;;;;;10.60;6.30;;;;;;;5.95;79.14;96502.88;5048832;28;20260;-82
2023/04/06 02:06:23;;;;;;;7.47;5.57;;;;;;;5.92;79.56;96500.41;5048952;28;20265;-82
2023/04/06 02:08:50;;;;;;;7.97;6.23;;;;;;;5.85;79.67;96497.25;5032038;28;20710;-84
2023/04/06 02:11:18;;;;;;;6.70;5.30;;;;;;;5.84;79.91;96497.28;5048747;28;20200;-85
2023/04/06 02:13:49;;;;;;;7.23;5.90;;;;;;;5.93;79.65;96500.38;5050576;28;20658;-78
2023/04/06 02:16:36;;;;;;;7.07;5.37;;;;;;;5.86;79.16;96496.34;5045007;28;20194;-81
2023/04/06 02:19:03;;;;;;;7.03;5.47;;;;;;;5.94;78.64;96502.03;5049583;28;20187;-82
2023/04/06 02:21:30;;;;;;;7.87;5.97;;;;;;;6.06;79.42;96504.16;5048412;28;20237;-79
2023/04/06 02:23:58;;;;;;;8.90;6.73;;;;;;;6.00;78.56;96495.81;5049730;28;20187;-79
2023/04/06 02:26:25;;;;;;;7.07;5.73;;;;;;;5.91;78.57;96489.31;5070500;28;20293;-80
2023/04/06 02:28:52;;;;;;;7.67;5.57;;;;;;;5.94;78.65;96506.31;5059843;28;20294;-84
2023/04/06 02:31:19;;;;;;;7.63;5.13;;;;;;;5.95;78.76;96503.72;5080953;28;20214;-89
2023/04/06 02:33:46;;;;;;;7.50;5.37;;;;;;;5.77;79.22;96478.63;5057538;28;20583;-82
2023/04/06 02:36:15;;;;;;;13.03;8.20;;;;;;;5.87;78.46;96512.59;5054814;28;20186;-90
2023/04/06 02:38:42;;;;;;;11.73;8.23;;;;;;;5.75;78.68;96516.38;5056375;28;20563;-79
2023/04/06 02:41:10;;;;;;;10.80;7.97;;;;;;;5.49;79.63;96506.19;5092992;28;20195;-78
2023/04/06 02:43:37;;;;;;;10.23;7.90;;;;;;;5.44;80.78;96508.91;5074938;28;20216;-75
2023/04/06 02:46:14;;;;;;;11.33;8.63;;;;;;;5.31;81.34;96501.69;5088761;28;20305;-81
2023/04/06 02:48:41;;;;;;;9.67;7.27;;;;;;;5.39;81.69;96509.97;5103356;28;20220;-85
2023/04/06 02:51:08;;;;;;;10.90;7.80;;;;;;;5.39;82.14;96507.41;5075039;28;20229;-85
2023/04/06 02:53:36;;;;;;;11.37;7.80;;;;;;;5.67;81.57;96505.53;5074960;28;20217;-81
2023/04/06 02:56:05;;;;;;;10.60;8.13;;;;;;;5.66;80.41;96488.47;5077327;28;20612;-80
2023/04/06 02:58:41;;;;;;;13.27;7.80;;;;;;;5.81;79.36;96505.94;5072105;28;20221;-82
2023/04/06 03:01:09;;;;;;;9.50;7.50;;;;;;;5.77;78.45;96501.75;5072247;28;20682;-79
2023/04/06 03:03:37;;;;;;;12.97;8.50;;;;;;;5.79;77.59;96505.09;5075481;28;20186;-85
2023/04/06 03:06:10;;;;;;;10.47;7.17;;;;;;;5.81;77.58;96508.50;5075910;28;20204;-88
2023/04/06 03:08:37;;;;;;;8.53;6.43;;;;;;;5.90;77.87;96513.31;5073492;28;20218;-84
2023/04/06 03:11:04;;;;;;;15.17;6.90;;;;;;;5.95;77.10;96516.56;5072329;28;20668;-85
2023/04/06 03:13:40;;;;;;;9.57;7.03;;;;;;;5.96;77.24;96513.09;5071678;28;20192;-82
2023/04/06 03:16:07;;;;;;;10.50;6.73;;;;;;;5.87;77.18;96516.00;5071277;28;20635;-88
2023/04/06 03:18:34;;;;;;;13.83;8.13;;;;;;;5.91;76.90;96519.31;5071554;28;20198;-86
2023/04/06 03:21:01;;;;;;;12.40;8.33;;;;;;;5.91;77.35;96525.28;5089494;28;20637;-87
2023/04/06 03:23:41;;;;;;;13.50;7.97;;;;;;;6.01;77.40;96523.22;5071424;28;20211;-85
2023/04/06 03:26:08;;;;;;;17.63;9.10;;;;;;;6.07;76.13;96526.41;5089884;28;20280;-85
2023/04/06 03:28:35;;;;;;;13.90;7.33;;;;;;;5.94;77.34;96508.91;5089312;28;20624;-81
2023/04/06 03:31:05;;;;;;;17.40;8.20;;;;;;;5.97;77.15;96525.06;5089422;28;20222;-85
2023/04/06 03:33:52;;;;;;;11.93;8.50;;;;;;;5.91;76.89;96509.88;5089002;28;20204;-82
2023/04/06 03:36:25;;;;;;;10.70;7.27;;;;;;;5.94;76.53;96520.03;5089328;28;20193;-87
2023/04/06 03:38:54;;;;;;;11.33;7.37;;;;;;;5.97;76.88;96519.06;5088241;28;20206;-75
2023/04/06 03:41:21;;;;;;;11.40;7.80;;;;;;;5.90;76.30;96509.91;5077813;28;20190;-82
2023/04/06 03:43:58;;;;;;;11.63;8.53;;;;;;;5.88;76.49;96522.81;5068371;28;20737;-81
2023/04/06 03:46:25;;;;;;;13.13;8.57;;;;;;;5.83;76.92;96524.69;5079158;28;20203;-86
2023/04/06 03:48:55;;;;;;;11.13;8.30;;;;;;;5.58;78.41;96519.56;5070404;28;20208;-88
2023/04/06 03:51:23;;;;;;;13.10;9.63;;;;;;;5.45;79.67;96525.16;5071206;28;20690;-85
2023/04/06 03:53:51;;;;;;;13.80;10.10;;;;;;;5.19;79.35;96520.06;5088628;28;20664;-87
2023/04/06 03:56:18;;;;;;;15.07;10.43;;;;;;;5.07;79.71;96525.63;5088734;28;20202;-84
2023/04/06 03:58:50;;;;;;;16.90;10.67;;;;;;;5.01;79.86;96523.25;5093154;28;20279;-86
2023/04/06 04:01:20;;;;;;;18.83;10.60;;;;;;;5.15;79.04;96531.31;5096006;28;20208;-90
2023/04/06 04:03:47;;;;;;;15.33;10.10;;;;;;;5.19;79.07;96523.50;5091954;28;20259;-88
2023/04/06 04:06:17;;;;;;;27.60;10.50;;;;;;;5.41;78.01;96521.88;5093499;28;20213;-85
2023/04/06 04:08:45;;;;;;;17.47;10.93;;;;;;;5.57;77.33;96522.16;5095095;28;20244;-88
2023/04/06 04:11:13;;;;;;;17.87;9.37;;;;;;;5.62;76.63;96520.28;5077511;28;20193;-89
2023/04/06 04:13:40;;;;;;;14.83;9.17;;;;;;;5.60;75.97;96512.66;5096669;28;20199;-83
2023/04/06 04:16:08;;;;;;;15.83;10.00;;;;;;;5.74;75.93;96519.88;5054401;28;20188;-85
2023/04/06 04:18:36;;;;;;;16.27;11.13;;;;;;;5.68;75.87;96512.38;5071605;28;20676;-85
2023/04/06 04:21:05;;;;;;;18.17;9.77;;;;;;;5.66;75.49;96491.88;5054686;28;20248;-88
2023/04/06 04:23:33;;;;;;;14.30;9.70;;;;;;;5.60;75.93;96516.94;5075108;28;20186;-87
2023/04/06 04:26:03;;;;;;;16.80;11.30;;;;;;;5.69;76.77;96519.16;5072525;28;20191;-89
2023/04/06 04:28:30;;;;;;;17.43;11.00;;;;;;;5.69;76.88;96504.59;5069288;28;20223;-90
2023/04/06 04:30:58;;;;;;;18.83;11.33;;;;;;;5.73;76.47;96510.47;5062287;28;20589;-72
2023/04/06 04:33:28;;;;;;;14.00;9.80;;;;;;;5.73;76.14;96525.88;5077304;28;20692;-72
2023/04/06 04:35:57;;;;;;;19.47;10.77;;;;;;;5.87;76.86;96526.28;5073144;28;20285;-88
2023/04/06 04:38:29;;;;;;;19.53;11.03;;;;;;;5.97;76.40;96522.50;5071365;28;20290;-85
2023/04/06 04:40:56;;;;;;;17.67;10.27;;;;;;;6.10;75.88;96521.13;5074476;28;20186;-89
2023/04/06 04:43:24;;;;;;;39.70;16.20;;;;;;;6.03;75.22;96517.13;5070726;28;20219;-86
2023/04/06 04:45:52;;;;;;;17.53;8.83;;;;;;;6.02;74.53;96517.19;5088397;28;20190;-80
2023/04/06 04:48:36;;;;;;;16.83;8.77;;;;;;;6.07;73.85;96525.56;5088499;28;20213;-87
2023/04/06 04:51:05;;;;;;;17.10;10.37;;;;;;;5.88;73.93;96519.41;5068834;28;20182;-81
2023/04/06 04:53:47;;;;;;;12.17;8.20;;;;;;;5.84;74.43;96523.81;5069379;28;20205;-79
2023/04/06 04:56:25;;;;;;;13.83;8.90;;;;;;;5.86;74.64;96511.75;5069463;28;20681;-89
2023/04/06 04:58:57;;;;;;;24.63;8.87;;;;;;;6.02;73.74;96524.91;5087857;28;20277;-88
2023/04/06 05:01:27;;;;;;;12.40;7.90;;;;;;;5.94;73.71;96522.59;5069610;28;20208;-84
2023/04/06 05:03:54;;;;;;;22.37;10.90;;;;;;;6.03;73.94;96529.13;5052544;28;20738;-88
2023/04/06 05:06:21;;;;;;;16.40;9.73;;;;;;;5.85;74.51;96528.06;5069361;28;20193;-85
2023/04/06 05:08:49;;;;;;;12.73;8.83;;;;;;;6.08;73.94;96533.19;5087294;28;20221;-79
2023/04/06 05:11:16;;;;;;;12.80;8.13;;;;;;;6.09;73.37;96532.31;5069305;28;20213;-87
2023/04/06 05:13:49;;;;;;;22.70;9.53;;;;;;;6.13;73.16;96536.47;5069773;28;20194;-86
2023/04/06 05:16:20;;;;;;;23.23;9.63;;;;;;;6.13;74.94;96538.19;5069179;28;20193;-88
2023/04/06 05:18:50;;;;;;;20.67;10.10;;;;;;;6.12;76.05;96524.50;5070611;28;20197;-87
2023/04/06 05:21:18;;;;;;;20.13;9.80;;;;;;;6.22;76.09;96528.41;5069932;28;20278;-87
2023/04/06 05:23:59;;;;;;;17.80;10.13;;;;;;;6.13;76.06;96531.31;5070867;28;20867;-85
2023/04/06 05:26:27;;;;;;;29.00;12.27;;;;;;;6.23;75.70;96526.66;5094311;28;20197;-82
2023/04/06 05:28:59;;;;;;;19.53;10.93;;;;;;;6.07;75.16;96495.56;5071861;28;20294;-89
2023/04/06 05:31:31;;;;;;;29.03;12.00;;;;;;;6.27;75.94;96521.38;5074429;28;20244;-80
2023/04/06 05:33:58;;;;;;;21.80;10.73;;;;;;;6.43;74.16;96534.47;5091273;28;20186;-86
2023/04/06 05:36:32;;;;;;;16.77;10.30;;;;;;;6.57;74.66;96530.47;5089071;28;20194;-84
2023/04/06 05:39:04;;;;;;;23.00;10.07;;;;;;;6.67;74.42;96523.28;5071899;28;20194;-85
2023/04/06 05:41:40;;;;;;;19.67;9.20;;;;;;;6.76;74.02;96529.78;5069701;28;20245;-83
2023/04/06 05:44:09;;;;;;;25.17;10.70;;;;;;;6.75;73.24;96520.38;5069403;28;20228;-87
2023/04/06 05:46:38;;;;;;;19.43;10.10;;;;;;;6.86;72.93;96500.22;5068432;28;20646;-84
2023/04/06 05:49:10;;;;;;;14.83;9.90;;;;;;;7.17;73.50;96513.53;5047075;28;20213;-82
2023/04/06 05:51:39;;;;;;;15.07;10.07;;;;;;;7.22;72.75;96502.16;5032220;28;20719;-76
2023/04/06 05:54:07;;;;;;;17.47;9.90;;;;;;;7.51;71.60;96503.50;5064629;28;20197;-78
2023/04/06 05:56:34;;;;;;;15.70;10.23;;;;;;;7.52;69.67;96502.63;5069723;28;20184;-79
2023/04/06 05:59:02;;;;;;;18.40;10.93;;;;;;;7.29;70.98;96485.53;5069203;28;20613;-85
2023/04/06 06:01:30;;;;;;;19.50;10.93;;;;;;;7.77;70.39;96507.56;5068774;28;20814;-88
2023/04/06 06:03:57;;;;;;;16.63;10.80;;;;;;;7.88;69.30;96493.28;5089790;28;20215;-82
2023/04/06 06:06:29;;;;;;;16.10;11.07;;;;;;;7.94;68.96;96487.84;5073249;28;20208;-85
2023/04/06 06:09:12;;;;;;;15.83;9.37;;;;;;;8.20;68.30;96489.28;5073604;28;20280;-88
2023/04/06 06:11:51;;;;;;;17.17;9.83;;;;;;;8.03;66.10;96479.72;5072787;28;20187;-85
2023/04/06 06:14:23;;;;;;;16.77;9.53;;;;;;;8.11;64.28;96485.38;5073186;28;20190;-74
2023/04/06 06:16:50;;;;;;;11.10;8.60;;;;;;;7.74;63.64;96469.88;5072961;28;20198;-83
2023/04/06 06:19:18;;;;;;;12.10;9.30;;;;;;;7.97;63.26;96492.91;5074078;28;20204;-84
2023/04/06 06:21:45;;;;;;;14.50;8.90;;;;;;;7.81;62.02;96460.13;5072175;28;20699;-85
2023/04/06 06:24:12;;;;;;;12.70;9.13;;;;;;;8.29;60.32;96482.88;5071836;28;20226;-86
2023/04/06 06:26:39;;;;;;;12.50;9.10;;;;;;;8.72;59.67;96491.16;5072783;28;20188;-88
2023/04/06 06:29:08;;;;;;;13.87;8.47;;;;;;;8.97;57.86;96483.06;5056619;28;20239;-84
2023/04/06 06:31:37;;;;;;;13.60;9.13;;;;;;;8.94;58.60;96490.97;5054114;28;20213;-84
2023/04/06 06:34:05;;;;;;;10.33;8.50;;;;;;;9.05;58.15;96491.28;5060321;28;20224;-81
2023/04/06 06:36:35;;;;;;;16.53;9.03;;;;;;;9.06;57.67;96489.53;5057077;28;20200;-87
2023/04/06 06:39:05;;;;;;;13.13;7.97;;;;;;;8.69;58.49;96459.50;5052136;28;20220;-84
2023/04/06 06:41:32;;;;;;;11.20;8.40;;;;;;;8.87;57.57;96476.69;5070186;28;20199;-79
2023/04/06 06:44:00;;;;;;;11.73;8.77;;;;;;;8.98;58.40;96492.50;5069987;28;20196;-85
2023/04/06 06:46:27;;;;;;;14.77;8.30;;;;;;;9.32;57.69;96489.09;5051745;28;20193;-83
2023/04/06 06:48:54;;;;;;;14.87;9.37;;;;;;;9.49;57.88;96491.66;5069629;28;20188;-89
2023/04/06 06:51:21;;;;;;;12.90;9.23;;;;;;;9.78;57.10;96494.47;5053756;28;20247;-81
2023/04/06 06:53:48;;;;;;;16.40;10.40;;;;;;;9.66;56.54;96492.50;5070825;28;20640;-82
2023/04/06 06:56:15;;;;;;;19.23;9.53;;;;;;;9.87;56.07;96494.91;5069743;28;20185;-83
2023/04/06 06:58:42;;;;;;;9.43;7.23;;;;;;;9.78;54.80;96488.44;5052588;28;20273;-83
2023/04/06 07:01:09;;;;;;;12.63;8.63;;;;;;;9.84;54.64;96491.56;5070555;28;20190;-81
2023/04/06 07:03:37;;;;;;;19.50;8.43;;;;;;;9.73;55.30;96480.94;5052011;28;20193;-88
2023/04/06 07:06:04;;;;;;;14.93;9.67;;;;;;;9.70;55.93;96495.75;5052367;28;20200;-87
2023/04/06 07:08:31;;;;;;;13.00;8.57;;;;;;;9.81;56.04;96478.78;5084679;28;20238;-83
2023/04/06 07:10:58;;;;;;;11.93;8.80;;;;;;;10.08;55.38;96481.66;5051261;28;20224;-80
2023/04/06 07:13:27;;;;;;;14.00;8.63;;;;;;;10.01;55.12;96484.66;5068470;28;20234;-77
2023/04/06 07:15:56;;;;;;;16.47;8.17;;;;;;;10.11;54.21;96449.66;5049874;28;20239;-78
2023/04/06 07:18:23;;;;;;;8.47;6.60;;;;;;;10.49;53.55;96484.66;5068697;28;20604;-81
2023/04/06 07:20:51;;;;;;;7.57;6.03;;;;;;;10.19;51.80;96478.56;5050542;28;20233;-81
2023/04/06 07:23:18;;;;;;;8.10;5.93;;;;;;;10.15;52.40;96479.63;5067010;28;20693;-81
2023/04/06 07:25:45;;;;;;;6.87;5.37;;;;;;;10.39;51.35;96493.84;5084685;28;20261;-83
2023/04/06 07:28:12;;;;;;;4.00;3.57;;;;;;;10.52;49.76;96487.09;5050899;28;20192;-86
2023/04/06 07:30:40;;;;;;;5.80;4.47;;;;;;;10.79;49.12;96484.75;5050315;28;20731;-82
2023/04/06 07:33:09;;;;;;;7.13;4.07;;;;;;;10.29;48.82;96490.09;5050732;28;20640;-81
2023/04/06 07:35:37;;;;;;;9.77;4.60;;;;;;;10.28;50.13;96493.59;5034646;28;20193;-83
2023/04/06 07:38:05;;;;;;;11.27;5.30;;;;;;;10.43;49.87;96477.22;5051994;28;20200;-76
2023/04/06 07:40:34;;;;;;;12.43;6.30;;;;;;;10.54;49.53;96449.03;5054223;28;20215;-76
2023/04/06 07:43:01;;;;;;;11.03;6.37;;;;;;;10.82;50.34;96482.00;5050841;28;20632;-85
2023/04/06 07:45:29;;;;;;;10.13;5.43;;;;;;;10.94;50.21;96484.72;5051330;28;20196;-78
2023/04/06 07:47:57;;;;;;;7.50;5.90;;;;;;;10.87;50.25;96488.59;5061452;28;20186;-77
2023/04/06 07:50:26;;;;;;;7.00;5.90;;;;;;;11.07;51.02;96483.13;5070514;28;20224;-81
2023/04/06 07:52:54;;;;;;;9.87;6.53;;;;;;;10.95;50.61;96481.22;5070024;28;20210;-77
2023/04/06 07:55:22;;;;;;;12.43;5.80;;;;;;;11.04;49.87;96475.53;5088044;28;20604;-78
2023/04/06 07:57:50;;;;;;;6.00;5.20;;;;;;;11.08;49.37;96466.66;5050082;28;20321;-81
2023/04/06 08:00:18;;;;;;;10.23;6.80;;;;;;;11.18;48.92;96482.50;5067646;28;20705;-76
2023/04/06 08:02:45;;;;;;;10.97;5.83;;;;;;;11.24;49.40;96482.16;5067708;28;20587;-79
2023/04/06 08:05:12;;;;;;;9.07;4.93;;;;;;;11.13;49.27;96467.22;5049762;28;20558;-84
2023/04/06 08:07:39;;;;;;;7.57;5.37;;;;;;;11.08;49.08;96487.41;5067725;28;20245;-80
2023/04/06 08:10:06;;;;;;;8.77;6.40;;;;;;;11.32;49.08;96486.00;5067682;28;20295;-75
2023/04/06 08:12:34;;;;;;;7.73;5.77;;;;;;;11.21;48.53;96465.03;5067350;28;21041;-79
2023/04/06 08:15:03;;;;;;;7.87;5.73;;;;;;;11.42;48.13;96479.34;5067701;28;20668;-81
2023/04/06 08:17:32;;;;;;;6.67;4.40;;;;;;;11.14;48.35;96493.97;5049107;28;20211;-83
2023/04/06 08:19:59;;;;;;;11.80;5.33;;;;;;;11.25;48.75;96482.06;5067962;28;20729;-79
2023/04/06 08:22:26;;;;;;;6.67;5.20;;;;;;;11.65;48.81;96482.34;5067239;28;20219;-81
2023/04/06 08:24:53;;;;;;;9.80;5.20;;;;;;;11.88;47.94;96484.44;5067609;28;20267;-84
2023/04/06 08:27:20;;;;;;;8.07;5.17;;;;;;;11.98;46.98;96477.78;5068130;28;20183;-82
2023/04/06 08:29:49;;;;;;;6.87;4.80;;;;;;;11.65;47.32;96477.16;5067085;28;20228;-78
2023/04/06 08:32:17;;;;;;;8.00;4.97;;;;;;;11.69;47.17;96468.31;5069333;28;20198;-83
2023/04/06 08:34:45;;;;;;;6.13;4.90;;;;;;;11.44;47.99;96474.06;5073229;28;20814;-73
2023/04/06 08:37:12;;;;;;;4.67;4.07;;;;;;;11.40;48.02;96467.38;5050444;28;20236;-82
2023/04/06 08:39:39;;;;;;;11.57;5.80;;;;;;;11.24;47.71;96435.50;5067147;28;20194;-81
2023/04/06 08:42:16;;;;;;;10.57;4.90;;;;;;;11.29;48.42;96462.00;5067035;28;20185;-83
2023/04/06 08:44:46;;;;;;;5.97;4.40;;;;;;;11.48;47.92;96464.38;5066862;28;20189;-82
2023/04/06 08:47:13;;;;;;;5.97;4.30;;;;;;;11.85;46.64;96471.69;5066579;28;20186;-76
2023/04/06 08:49:41;;;;;;;5.67;4.53;;;;;;;11.58;49.19;96474.09;5074311;28;20735;-78
2023/04/06 08:52:10;;;;;;;5.73;4.30;;;;;;;12.20;46.60;96453.03;5086825;28;20187;-77
2023/04/06 08:54:38;;;;;;;4.70;4.03;;;;;;;12.04;46.14;96474.81;5088438;28;20207;-88
2023/04/06 08:57:07;;;;;;;4.80;3.77;;;;;;;11.23;47.43;96481.31;5086850;28;20185;-78
2023/04/06 08:59:35;;;;;;;4.73;4.27;;;;;;;10.96;48.25;96480.31;5082478;28;20196;-81
2023/04/06 09:02:07;;;;;;;11.10;6.00;;;;;;;10.75;48.73;96465.97;5084157;28;20629;-80
2023/04/06 09:04:36;;;;;;;4.27;3.80;;;;;;;10.47;49.23;96468.38;5086619;28;20194;-79
2023/04/06 09:07:03;;;;;;;5.00;4.40;;;;;;;10.24;49.93;96445.53;5086580;28;20185;-74
2023/04/06 09:09:30;;;;;;;5.90;4.30;;;;;;;10.52;49.77;96468.97;5067894;28;20387;-75
2023/04/06 09:12:03;;;;;;;4.47;3.80;;;;;;;10.22;50.46;96452.53;5086723;28;20228;-79
2023/04/06 09:14:35;;;;;;;5.13;4.63;;;;;;;10.32;50.27;96459.72;5086471;28;20185;-74
2023/04/06 09:17:02;;;;;;;5.30;4.33;;;;;;;10.48;50.45;96464.88;5086596;28;20763;-77
2023/04/06 09:19:29;;;;;;;5.80;4.17;;;;;;;10.48;49.55;96457.13;5067926;28;20216;-78
2023/04/06 09:22:09;;;;;;;5.30;4.30;;;;;;;10.39;49.69;96426.56;5086315;28;20234;-75
2023/04/06 09:24:48;;;;;;;4.73;4.23;;;;;;;10.62;49.74;96462.38;5086894;28;20271;-82
2023/04/06 09:27:16;;;;;;;8.07;5.10;;;;;;;10.91;49.42;96459.00;5086703;28;20546;-82
2023/04/06 09:29:44;;;;;;;10.00;5.90;;;;;;;11.28;49.09;96443.03;5100045;28;20287;-79
2023/04/06 09:32:16;;;;;;;6.23;4.67;;;;;;;11.41;49.62;96443.16;5086321;28;20262;-81
2023/04/06 09:34:48;;;;;;;6.47;4.37;;;;;;;11.71;48.28;96449.13;5069983;28;20715;-75
2023/04/06 09:37:18;;;;;;;6.07;4.23;;;;;;;11.53;48.19;96441.56;5085253;28;20191;-80
2023/04/06 09:39:46;;;;;;;6.50;4.13;;;;;;;11.18;49.00;96436.72;5050857;28;20606;-78
2023/04/06 09:42:25;;;;;;;4.93;4.33;;;;;;;11.32;48.30;96439.31;5086293;28;20182;-75
2023/04/06 09:44:52;;;;;;;6.67;4.90;;;;;;;11.32;49.05;96439.31;5086693;28;20319;-78
2023/04/06 09:47:20;;;;;;;6.10;3.90;;;;;;;11.44;48.38;96438.59;5082826;28;20197;-80
2023/04/06 09:49:50;;;;;;;4.63;4.10;;;;;;;11.02;48.30;96432.50;5065704;28;20197;-75
2023/04/06 09:52:18;;;;;;;4.40;4.00;;;;;;;10.82;49.34;96436.19;5065937;28;20786;-81
2023/04/06 09:54:49;;;;;;;9.07;5.53;;;;;;;11.11;49.02;96444.91;5066374;28;20201;-86
2023/04/06 09:57:16;;;;;;;4.47;3.70;;;;;;;11.08;48.74;96447.69;5065861;28;20197;-83
2023/04/06 10:00:09;;;;;;;7.97;4.77;;;;;;;10.90;48.69;96441.78;5081502;28;20234;-86
2023/04/06 10:02:50;;;;;;;5.67;4.57;;;;;;;10.73;49.30;96436.72;5066067;28;20218;-74
2023/04/06 10:05:26;;;;;;;7.60;4.60;;;;;;;10.86;49.65;96445.47;5065802;28;20204;-82
2023/04/06 10:07:56;;;;;;;9.77;4.87;;;;;;;10.96;48.89;96438.03;5066084;28;20284;-82
2023/04/06 10:10:28;;;;;;;4.73;3.67;;;;;;;10.72;49.46;96426.44;5047535;28;20544;-82
2023/04/06 10:12:56;;;;;;;5.17;3.80;;;;;;;10.83;50.16;96430.09;5066249;28;20655;-82
2023/04/06 10:15:24;;;;;;;7.73;5.03;;;;;;;11.07;49.98;96433.88;5065412;28;20181;-79
2023/04/06 10:17:51;;;;;;;6.30;4.70;;;;;;;10.79;50.52;96418.25;5065646;28;20255;-80
2023/04/06 10:20:47;;;;;;;7.67;4.57;;;;;;;11.15;50.77;96428.25;5065304;28;20186;-80
2023/04/06 10:23:45;;;;;;;3.50;3.13;;;;;;;10.81;49.19;96444.06;5048053;28;20849;-79
2023/04/06 10:26:17;;;;;;;4.40;4.00;;;;;;;11.60;47.96;96428.19;5066319;28;20186;-79
2023/04/06 10:28:45;;;;;;;3.93;3.53;;;;;;;11.54;47.72;96432.88;5047830;28;20206;-80
2023/04/06 10:31:13;;;;;;;3.50;3.20;;;;;;;11.53;47.88;96436.41;5067791;28;20220;-78
2023/04/06 10:33:41;;;;;;;4.77;3.73;;;;;;;11.09;48.95;96432.03;5055108;28;20537;-84
2023/04/06 10:36:13;;;;;;;4.07;3.57;;;;;;;11.05;49.38;96415.00;5066830;28;20198;-85
2023/04/06 10:38:41;;;;;;;4.53;4.07;;;;;;;10.97;49.31;96427.56;5066579;28;20571;-83
2023/04/06 10:41:11;;;;;;;5.07;3.80;;;;;;;10.93;49.84;96425.22;5048051;28;20197;-86
2023/04/06 10:43:41;;;;;;;5.00;4.17;;;;;;;11.21;50.02;96399.41;5066102;28;20241;-78
2023/04/06 10:46:10;;;;;;;5.07;4.00;;;;;;;11.65;48.62;96415.75;5065570;28;20189;-81
2023/04/06 10:48:43;;;;;;;5.83;4.10;;;;;;;11.87;48.07;96417.94;5066757;28;20185;-82
2023/04/06 10:51:16;;;;;;;4.43;3.57;;;;;;;11.66;48.18;96421.78;5051531;28;20288;-83
2023/04/06 10:53:48;;;;;;;4.50;3.87;;;;;;;11.23;50.21;96413.13;5069315;28;20192;-82
2023/04/06 10:56:17;;;;;;;4.67;3.93;;;;;;;11.37;49.50;96401.00;5070172;28;20217;-81
2023/04/06 10:58:46;;;;;;;5.77;5.10;;;;;;;11.35;50.96;96408.03;5051480;28;20194;-80
2023/04/06 11:01:21;;;;;;;6.53;4.90;;;;;;;11.18;50.46;96415.97;5069078;28;20760;-85
2023/04/06 11:03:51;;;;;;;4.20;3.80;;;;;;;10.74;50.48;96409.91;5069876;28;20206;-80
2023/04/06 11:06:20;;;;;;;4.17;3.77;;;;;;;10.94;50.27;96409.59;5069359;28;20190;-80
2023/04/06 11:08:47;;;;;;;4.80;4.00;;;;;;;10.75;49.85;96398.63;5068962;28;20187;-82
2023/04/06 11:11:18;;;;;;;5.37;4.03;;;;;;;10.78;50.34;96408.81;5068333;28;20232;-82
2023/04/06 11:13:46;;;;;;;4.27;3.70;;;;;;;10.53;50.54;96411.13;5068927;28;20281;-80
2023/04/06 11:16:15;;;;;;;5.07;4.20;;;;;;;10.70;50.52;96395.44;5084273;28;20198;-80
2023/04/06 11:18:56;;;;;;;4.97;4.20;;;;;;;11.11;49.95;96404.28;5068922;28;20186;-79
2023/04/06 11:21:38;;;;;;;4.20;3.80;;;;;;;10.99;49.67;96399.81;5069120;28;20799;-84
2023/04/06 11:24:06;;;;;;;4.20;3.77;;;;;;;10.85;48.89;96368.69;5051865;28;20189;-86
2023/04/06 11:26:57;;;;;;;4.23;3.83;;;;;;;11.12;49.32;96405.97;5051297;28;20212;-82
2023/04/06 11:29:30;;;;;;;4.57;3.77;;;;;;;10.98;49.01;96405.94;5059060;28;20589;-84
2023/04/06 11:32:05;;;;;;;5.90;3.83;;;;;;;11.16;49.26;96389.31;5068142;28;20226;-84
2023/04/06 11:34:37;;;;;;;5.20;4.43;;;;;;;11.37;49.11;96389.81;5068563;28;20232;-83
2023/04/06 11:37:09;;;;;;;5.13;4.37;;;;;;;11.30;48.77;96386.75;5068301;28;20235;-85
2023/04/06 11:39:40;;;;;;;4.30;3.87;;;;;;;11.36;49.06;96396.75;5071320;28;20182;-82
2023/04/06 11:42:07;;;;;;;5.50;4.00;;;;;;;11.62;48.21;96389.19;5086938;28;20187;-80
2023/04/06 11:44:40;;;;;;;6.00;4.53;;;;;;;11.66;47.84;96385.47;5068343;28;20208;-79
2023/04/06 11:47:09;;;;;;;5.07;3.80;;;;;;;11.97;47.00;96386.13;5069632;28;20208;-85